Terminal Aerodrome Forecast
Issued by NWS

Home | Current Version | Previous Version | Text Only | Print | Product List | Glossary On
Versions: 1 2 3 4 5 6 7 8 9 10 11 12 13 14 15 16 17 18 19 20
240
FTUS41 KPBZ 061757
TAFZZV
TAF
KZZV 061757Z 0618/0718 10007KT 2SM -RA BR OVC005
     FM062000 14005KT 2SM -RA OVC008
     FM070100 24008KT P6SM OVC008
     FM070500 27010KT P6SM OVC015
     FM070900 28008KT P6SM BKN025
     FM071200 27007KT P6SM BKN040=

USA.gov is the U.S. government's official web portal to all federal, state and local government web resources and services.